Pagrindinis puslapis
METAR-TAF:

METAR-TAF

Oro uostai :

Padangas, Indonezija

platuma: 00-47-12S, ilguma: 100-16-50E, Aukštis: 5 m

METAR: trūkstamas

Laikas: 20:33 (13:33 UTC)

Prognozė

Ataskaita buvo paskelbta 2 valandos ir 33 minutes, ne 11:00 UTC
Prognozė galioja nuo 29 metu 12 UTC su 30 metu 12 UTC
Vėjas 5 kt iš Šiaurės Rytų
Matomumas 10 km arba daugiau
Išsisklaidę debesys ne aukštis 2000 ft

TAF: WIEE 291100Z 2912/3012 04005KT 9999 SCT020

Orai ataskaitas ir orų prognozės (METAR, TAF).

turimą stotys yra geltonos ir raudonos taškus žemėlapyje.

Perkelti pele per norėdami pamatyti stoties vardą.

Tada spustelėkite, norėdami matyti oro stebėjimo ir prognozės.

Norėdami pakeisti žemėlapį: spustelėkite ant žalios mygtukų su juodo kryžiaus žemyn,; žalią mygtuką su brūkšneliu, jei norite nutolinti; arba žalių rodyklių gretimoms žemėlapius.


METAR-TAF: